Mount Shasta, California
Current Conditions -  °F | °C
As of 5:56 PM on Saturday 20 Dec 2014 (Local Time) from KMHS Reporting Station
Light Rain Light Rain  
Wind Chill:   Ceiling: 7500
Heat Index:   Visibility: 10mi
Dew Point:   Wind: 3mph
Humidity: 89%   Direction: 110°ESE
Pressure: 30.12"   Gusts: NA
Location:  41.31°N, 122.31°W
Report Text: KMHS 210156Z AUTO 11003KT 10SM -RA FEW030 BKN075 OVC095 07/05 A3012 RMK AO2 SLP222 P0001 T00670050
Loading
Personal Weather Stations






























Interactive Weather Map New forecast layout! Learn more

10-Day Weather Forecast

Advertisements
Track Severe Weather on mobile